sim
Sign-in with your pilot id or email,
or register
Callsign
Passwort

Schedule Details

Flight Number: RYR8994
Departure: Dublin Airport (EIDW) at 08:50
Arrival: Munich Airport (EDDM) at 11:15
Route: Ryanair Passenger Schedule. Enter filed route here before submitting Pirep.

Weather Information
Getting current METAR information for EIDW 210700Z 24005KT 210V280 9999 FEW016 SCT250 11/10 Q1018 NOSIG
Getting current METAR information for EDDM 210720Z VRB01KT CAVOK 13/12 Q1017 BECMG 09005KT

Schedule Frequency

Route Map